sensor_id;sensor_type;location;lat;lon;timestamp;P1;durP1;ratioP1;P2;durP2;ratioP2
17451;SDS011;8843;48.838;9.324;2023-12-07T00:02:15;9.37;;;6.93;;
17451;SDS011;8843;48.838;9.324;2023-12-07T00:04:42;9.37;;;7.03;;
17451;SDS011;8843;48.838;9.324;2023-12-07T00:07:09;12.47;;;6.97;;
17451;SDS011;8843;48.838;9.324;2023-12-07T00:09:37;6.93;;;5.97;;
17451;SDS011;8843;48.838;9.324;2023-12-07T00:12:04;9.23;;;6.37;;
17451;SDS011;8843;48.838;9.324;2023-12-07T00:14:31;6.47;;;5.40;;
17451;SDS011;8843;48.838;9.324;2023-12-07T00:16:58;9.37;;;6.33;;
17451;SDS011;8843;48.838;9.324;2023-12-07T00:19:25;9.07;;;6.30;;
17451;SDS011;8843;48.838;9.324;2023-12-07T00:21:52;6.97;;;5.67;;
17451;SDS011;8843;48.838;9.324;2023-12-07T00:24:18;10.27;;;5.77;;
17451;SDS011;8843;48.838;9.324;2023-12-07T00:26:47;6.70;;;5.47;;
17451;SDS011;8843;48.838;9.324;2023-12-07T00:29:14;10.30;;;6.60;;
17451;SDS011;8843;48.838;9.324;2023-12-07T00:31:41;8.27;;;5.57;;
17451;SDS011;8843;48.838;9.324;2023-12-07T00:34:09;7.80;;;5.87;;
17451;SDS011;8843;48.838;9.324;2023-12-07T00:36:35;9.37;;;6.60;;
17451;SDS011;8843;48.838;9.324;2023-12-07T00:39:04;10.57;;;7.00;;
17451;SDS011;8843;48.838;9.324;2023-12-07T00:41:30;6.87;;;5.90;;
17451;SDS011;8843;48.838;9.324;2023-12-07T00:43:59;7.63;;;6.10;;
17451;SDS011;8843;48.838;9.324;2023-12-07T00:46:26;8.90;;;7.30;;
17451;SDS011;8843;48.838;9.324;2023-12-07T00:48:53;12.00;;;6.33;;
17451;SDS011;8843;48.838;9.324;2023-12-07T00:51:19;10.13;;;7.70;;
17451;SDS011;8843;48.838;9.324;2023-12-07T00:53:46;10.37;;;7.30;;
17451;SDS011;8843;48.838;9.324;2023-12-07T00:56:13;9.10;;;6.33;;
17451;SDS011;8843;48.838;9.324;2023-12-07T00:58:40;9.40;;;6.57;;
17451;SDS011;8843;48.838;9.324;2023-12-07T01:01:08;7.83;;;6.00;;
17451;SDS011;8843;48.838;9.324;2023-12-07T01:03:35;7.90;;;6.33;;
17451;SDS011;8843;48.838;9.324;2023-12-07T01:06:02;9.10;;;6.80;;
17451;SDS011;8843;48.838;9.324;2023-12-07T01:08:29;9.10;;;6.67;;
17451;SDS011;8843;48.838;9.324;2023-12-07T01:10:56;7.63;;;6.10;;
17451;SDS011;8843;48.838;9.324;2023-12-07T01:13:23;8.40;;;6.17;;
17451;SDS011;8843;48.838;9.324;2023-12-07T01:15:50;9.67;;;6.20;;
17451;SDS011;8843;48.838;9.324;2023-12-07T01:18:18;10.03;;;7.37;;
17451;SDS011;8843;48.838;9.324;2023-12-07T01:20:45;7.80;;;6.30;;
17451;SDS011;8843;48.838;9.324;2023-12-07T01:23:13;8.60;;;7.13;;
17451;SDS011;8843;48.838;9.324;2023-12-07T01:25:40;8.33;;;6.50;;
17451;SDS011;8843;48.838;9.324;2023-12-07T01:28:06;7.87;;;6.03;;
17451;SDS011;8843;48.838;9.324;2023-12-07T01:30:34;7.67;;;5.73;;
17451;SDS011;8843;48.838;9.324;2023-12-07T01:33:01;8.77;;;6.57;;
17451;SDS011;8843;48.838;9.324;2023-12-07T01:35:29;8.13;;;5.77;;
17451;SDS011;8843;48.838;9.324;2023-12-07T01:37:56;8.60;;;6.00;;
17451;SDS011;8843;48.838;9.324;2023-12-07T01:40:23;6.93;;;6.13;;
17451;SDS011;8843;48.838;9.324;2023-12-07T01:42:50;7.47;;;5.80;;
17451;SDS011;8843;48.838;9.324;2023-12-07T01:45:18;7.00;;;5.80;;
17451;SDS011;8843;48.838;9.324;2023-12-07T01:47:44;7.03;;;5.50;;
17451;SDS011;8843;48.838;9.324;2023-12-07T01:50:15;6.53;;;5.80;;
17451;SDS011;8843;48.838;9.324;2023-12-07T01:52:51;6.77;;;5.30;;
17451;SDS011;8843;48.838;9.324;2023-12-07T01:55:21;7.00;;;5.77;;
17451;SDS011;8843;48.838;9.324;2023-12-07T01:57:49;6.70;;;5.57;;
17451;SDS011;8843;48.838;9.324;2023-12-07T02:00:16;7.80;;;5.63;;
17451;SDS011;8843;48.838;9.324;2023-12-07T02:02:43;7.37;;;5.20;;
17451;SDS011;8843;48.838;9.324;2023-12-07T02:05:11;8.90;;;5.90;;
17451;SDS011;8843;48.838;9.324;2023-12-07T02:07:39;8.17;;;6.50;;
17451;SDS011;8843;48.838;9.324;2023-12-07T02:10:09;8.67;;;4.83;;
17451;SDS011;8843;48.838;9.324;2023-12-07T02:12:38;7.97;;;5.97;;
17451;SDS011;8843;48.838;9.324;2023-12-07T02:15:06;8.43;;;5.93;;
17451;SDS011;8843;48.838;9.324;2023-12-07T02:17:38;8.63;;;6.10;;
17451;SDS011;8843;48.838;9.324;2023-12-07T02:20:11;7.60;;;6.17;;
17451;SDS011;8843;48.838;9.324;2023-12-07T02:22:43;8.33;;;5.63;;
17451;SDS011;8843;48.838;9.324;2023-12-07T02:25:17;6.17;;;5.27;;
17451;SDS011;8843;48.838;9.324;2023-12-07T02:27:51;5.93;;;4.70;;
17451;SDS011;8843;48.838;9.324;2023-12-07T02:30:17;8.07;;;6.27;;
17451;SDS011;8843;48.838;9.324;2023-12-07T02:32:45;7.50;;;5.93;;
17451;SDS011;8843;48.838;9.324;2023-12-07T02:35:12;7.97;;;5.80;;
17451;SDS011;8843;48.838;9.324;2023-12-07T02:37:40;8.43;;;6.20;;
17451;SDS011;8843;48.838;9.324;2023-12-07T02:40:09;8.13;;;6.13;;
17451;SDS011;8843;48.838;9.324;2023-12-07T02:42:40;7.77;;;5.33;;
17451;SDS011;8843;48.838;9.324;2023-12-07T02:45:09;9.43;;;6.03;;
17451;SDS011;8843;48.838;9.324;2023-12-07T02:47:37;8.40;;;6.17;;
17451;SDS011;8843;48.838;9.324;2023-12-07T02:50:05;9.07;;;6.50;;
17451;SDS011;8843;48.838;9.324;2023-12-07T02:52:33;6.60;;;5.33;;
17451;SDS011;8843;48.838;9.324;2023-12-07T02:55:01;9.27;;;6.37;;
17451;SDS011;8843;48.838;9.324;2023-12-07T02:57:28;8.17;;;6.20;;
17451;SDS011;8843;48.838;9.324;2023-12-07T02:59:55;7.37;;;6.10;;
17451;SDS011;8843;48.838;9.324;2023-12-07T03:02:24;7.13;;;5.43;;
17451;SDS011;8843;48.838;9.324;2023-12-07T03:04:51;7.40;;;6.57;;
17451;SDS011;8843;48.838;9.324;2023-12-07T03:07:18;8.57;;;6.70;;
17451;SDS011;8843;48.838;9.324;2023-12-07T03:09:45;5.77;;;5.07;;
17451;SDS011;8843;48.838;9.324;2023-12-07T03:12:12;7.03;;;5.67;;
17451;SDS011;8843;48.838;9.324;2023-12-07T03:14:39;7.10;;;5.20;;
17451;SDS011;8843;48.838;9.324;2023-12-07T03:17:05;6.70;;;5.60;;
17451;SDS011;8843;48.838;9.324;2023-12-07T03:19:37;8.53;;;5.77;;
17451;SDS011;8843;48.838;9.324;2023-12-07T03:22:04;10.07;;;6.40;;
17451;SDS011;8843;48.838;9.324;2023-12-07T03:24:31;8.40;;;6.20;;
17451;SDS011;8843;48.838;9.324;2023-12-07T03:26:58;7.83;;;5.47;;
17451;SDS011;8843;48.838;9.324;2023-12-07T03:29:25;7.80;;;5.57;;
17451;SDS011;8843;48.838;9.324;2023-12-07T03:31:52;8.60;;;6.27;;
17451;SDS011;8843;48.838;9.324;2023-12-07T03:34:19;7.43;;;5.60;;
17451;SDS011;8843;48.838;9.324;2023-12-07T03:36:47;9.07;;;6.10;;
17451;SDS011;8843;48.838;9.324;2023-12-07T03:39:14;8.53;;;5.37;;
17451;SDS011;8843;48.838;9.324;2023-12-07T03:41:43;6.97;;;5.60;;
17451;SDS011;8843;48.838;9.324;2023-12-07T03:44:10;7.10;;;5.97;;
17451;SDS011;8843;48.838;9.324;2023-12-07T03:46:37;7.43;;;5.03;;
17451;SDS011;8843;48.838;9.324;2023-12-07T03:49:05;7.03;;;5.17;;
17451;SDS011;8843;48.838;9.324;2023-12-07T03:51:31;8.03;;;5.20;;
17451;SDS011;8843;48.838;9.324;2023-12-07T03:54:02;7.47;;;5.77;;
17451;SDS011;8843;48.838;9.324;2023-12-07T03:56:31;8.13;;;5.80;;
17451;SDS011;8843;48.838;9.324;2023-12-07T03:58:59;5.87;;;5.07;;
17451;SDS011;8843;48.838;9.324;2023-12-07T04:01:27;6.67;;;5.20;;
17451;SDS011;8843;48.838;9.324;2023-12-07T04:03:56;5.57;;;5.07;;
17451;SDS011;8843;48.838;9.324;2023-12-07T04:06:23;7.23;;;5.43;;
17451;SDS011;8843;48.838;9.324;2023-12-07T04:08:51;7.80;;;6.23;;
17451;SDS011;8843;48.838;9.324;2023-12-07T04:11:20;7.77;;;5.23;;
17451;SDS011;8843;48.838;9.324;2023-12-07T04:13:47;6.37;;;5.13;;
17451;SDS011;8843;48.838;9.324;2023-12-07T04:16:14;8.23;;;5.60;;
17451;SDS011;8843;48.838;9.324;2023-12-07T04:18:41;6.67;;;5.97;;
17451;SDS011;8843;48.838;9.324;2023-12-07T04:21:08;8.70;;;6.20;;
17451;SDS011;8843;48.838;9.324;2023-12-07T04:23:35;7.43;;;5.37;;
17451;SDS011;8843;48.838;9.324;2023-12-07T04:26:02;7.20;;;6.03;;
17451;SDS011;8843;48.838;9.324;2023-12-07T04:28:30;7.53;;;5.63;;
17451;SDS011;8843;48.838;9.324;2023-12-07T04:30:57;8.73;;;6.07;;
17451;SDS011;8843;48.838;9.324;2023-12-07T04:33:24;7.80;;;6.30;;
17451;SDS011;8843;48.838;9.324;2023-12-07T04:35:51;5.70;;;5.10;;
17451;SDS011;8843;48.838;9.324;2023-12-07T04:38:18;11.20;;;6.73;;
17451;SDS011;8843;48.838;9.324;2023-12-07T04:40:45;9.93;;;6.80;;
17451;SDS011;8843;48.838;9.324;2023-12-07T04:43:11;6.57;;;5.53;;
17451;SDS011;8843;48.838;9.324;2023-12-07T04:45:40;8.90;;;6.47;;
17451;SDS011;8843;48.838;9.324;2023-12-07T04:48:07;9.90;;;6.83;;
17451;SDS011;8843;48.838;9.324;2023-12-07T04:50:33;8.70;;;6.37;;
17451;SDS011;8843;48.838;9.324;2023-12-07T04:53:00;8.17;;;6.13;;
17451;SDS011;8843;48.838;9.324;2023-12-07T04:55:27;9.40;;;6.80;;
17451;SDS011;8843;48.838;9.324;2023-12-07T04:57:54;6.87;;;5.63;;
17451;SDS011;8843;48.838;9.324;2023-12-07T05:00:21;10.00;;;6.87;;
17451;SDS011;8843;48.838;9.324;2023-12-07T05:02:49;7.20;;;5.77;;
17451;SDS011;8843;48.838;9.324;2023-12-07T05:05:16;7.93;;;5.60;;
17451;SDS011;8843;48.838;9.324;2023-12-07T05:07:43;7.87;;;6.03;;
17451;SDS011;8843;48.838;9.324;2023-12-07T05:10:11;6.90;;;5.60;;
17451;SDS011;8843;48.838;9.324;2023-12-07T05:12:38;8.13;;;5.60;;
17451;SDS011;8843;48.838;9.324;2023-12-07T05:15:05;9.80;;;6.57;;
17451;SDS011;8843;48.838;9.324;2023-12-07T05:17:33;7.60;;;6.27;;
17451;SDS011;8843;48.838;9.324;2023-12-07T05:20:01;6.90;;;5.93;;
17451;SDS011;8843;48.838;9.324;2023-12-07T05:22:31;7.23;;;5.67;;
17451;SDS011;8843;48.838;9.324;2023-12-07T05:24:57;7.23;;;5.80;;
17451;SDS011;8843;48.838;9.324;2023-12-07T05:27:24;7.83;;;5.87;;
17451;SDS011;8843;48.838;9.324;2023-12-07T05:29:51;6.70;;;5.47;;
17451;SDS011;8843;48.838;9.324;2023-12-07T05:32:18;7.57;;;6.03;;
17451;SDS011;8843;48.838;9.324;2023-12-07T05:34:45;8.30;;;6.10;;
17451;SDS011;8843;48.838;9.324;2023-12-07T05:37:13;8.40;;;6.37;;
17451;SDS011;8843;48.838;9.324;2023-12-07T05:39:41;9.90;;;6.33;;
17451;SDS011;8843;48.838;9.324;2023-12-07T05:42:07;9.10;;;6.37;;
17451;SDS011;8843;48.838;9.324;2023-12-07T05:44:34;9.03;;;6.77;;
17451;SDS011;8843;48.838;9.324;2023-12-07T05:47:01;7.87;;;6.20;;
17451;SDS011;8843;48.838;9.324;2023-12-07T05:49:28;11.37;;;6.30;;
17451;SDS011;8843;48.838;9.324;2023-12-07T05:51:55;9.53;;;6.00;;
17451;SDS011;8843;48.838;9.324;2023-12-07T05:54:23;10.30;;;6.47;;
17451;SDS011;8843;48.838;9.324;2023-12-07T05:56:50;7.43;;;5.43;;
17451;SDS011;8843;48.838;9.324;2023-12-07T05:59:17;9.10;;;6.83;;
17451;SDS011;8843;48.838;9.324;2023-12-07T06:01:44;8.10;;;6.20;;
17451;SDS011;8843;48.838;9.324;2023-12-07T06:04:11;8.07;;;5.77;;
17451;SDS011;8843;48.838;9.324;2023-12-07T06:06:38;9.73;;;6.50;;
17451;SDS011;8843;48.838;9.324;2023-12-07T06:09:05;7.57;;;6.00;;
17451;SDS011;8843;48.838;9.324;2023-12-07T06:11:34;8.80;;;6.37;;
17451;SDS011;8843;48.838;9.324;2023-12-07T06:14:01;8.17;;;6.83;;
17451;SDS011;8843;48.838;9.324;2023-12-07T06:16:28;9.20;;;6.73;;
17451;SDS011;8843;48.838;9.324;2023-12-07T06:18:55;10.57;;;7.47;;
17451;SDS011;8843;48.838;9.324;2023-12-07T06:21:21;8.37;;;6.33;;
17451;SDS011;8843;48.838;9.324;2023-12-07T06:23:50;9.50;;;6.80;;
17451;SDS011;8843;48.838;9.324;2023-12-07T06:26:18;10.13;;;6.80;;
17451;SDS011;8843;48.838;9.324;2023-12-07T06:28:46;9.07;;;6.50;;
17451;SDS011;8843;48.838;9.324;2023-12-07T06:31:13;12.70;;;7.53;;
17451;SDS011;8843;48.838;9.324;2023-12-07T06:33:41;10.80;;;6.70;;
17451;SDS011;8843;48.838;9.324;2023-12-07T06:36:08;11.47;;;6.33;;
17451;SDS011;8843;48.838;9.324;2023-12-07T06:38:35;9.57;;;6.60;;
17451;SDS011;8843;48.838;9.324;2023-12-07T06:41:03;10.33;;;7.60;;
17451;SDS011;8843;48.838;9.324;2023-12-07T06:43:30;9.73;;;7.10;;
17451;SDS011;8843;48.838;9.324;2023-12-07T06:45:58;10.07;;;6.80;;
17451;SDS011;8843;48.838;9.324;2023-12-07T06:48:25;10.53;;;6.57;;
17451;SDS011;8843;48.838;9.324;2023-12-07T06:50:52;9.93;;;7.17;;
17451;SDS011;8843;48.838;9.324;2023-12-07T06:53:19;9.77;;;6.77;;
17451;SDS011;8843;48.838;9.324;2023-12-07T06:55:51;9.93;;;7.23;;
17451;SDS011;8843;48.838;9.324;2023-12-07T06:58:35;10.47;;;7.00;;
17451;SDS011;8843;48.838;9.324;2023-12-07T07:01:03;12.13;;;7.77;;
17451;SDS011;8843;48.838;9.324;2023-12-07T07:03:30;9.17;;;7.27;;
17451;SDS011;8843;48.838;9.324;2023-12-07T07:05:57;8.83;;;6.50;;
17451;SDS011;8843;48.838;9.324;2023-12-07T07:08:25;11.70;;;7.13;;
17451;SDS011;8843;48.838;9.324;2023-12-07T07:10:52;14.50;;;8.00;;
17451;SDS011;8843;48.838;9.324;2023-12-07T07:13:19;10.93;;;7.50;;
17451;SDS011;8843;48.838;9.324;2023-12-07T07:15:46;8.37;;;6.40;;
17451;SDS011;8843;48.838;9.324;2023-12-07T07:18:14;9.30;;;6.90;;
17451;SDS011;8843;48.838;9.324;2023-12-07T07:20:41;10.20;;;6.57;;
17451;SDS011;8843;48.838;9.324;2023-12-07T07:23:09;11.00;;;7.37;;
17451;SDS011;8843;48.838;9.324;2023-12-07T07:25:37;8.53;;;6.53;;
17451;SDS011;8843;48.838;9.324;2023-12-07T07:28:04;10.70;;;6.90;;
17451;SDS011;8843;48.838;9.324;2023-12-07T07:30:32;10.10;;;7.23;;
17451;SDS011;8843;48.838;9.324;2023-12-07T07:32:59;9.73;;;6.90;;
17451;SDS011;8843;48.838;9.324;2023-12-07T07:35:28;9.23;;;6.50;;
17451;SDS011;8843;48.838;9.324;2023-12-07T07:37:55;7.30;;;6.53;;
17451;SDS011;8843;48.838;9.324;2023-12-07T07:40:22;10.10;;;6.10;;
17451;SDS011;8843;48.838;9.324;2023-12-07T07:42:49;10.67;;;7.20;;
17451;SDS011;8843;48.838;9.324;2023-12-07T07:45:16;9.63;;;6.70;;
17451;SDS011;8843;48.838;9.324;2023-12-07T07:47:44;10.43;;;6.47;;
17451;SDS011;8843;48.838;9.324;2023-12-07T07:50:10;10.77;;;7.50;;
17451;SDS011;8843;48.838;9.324;2023-12-07T07:52:39;9.50;;;7.30;;
17451;SDS011;8843;48.838;9.324;2023-12-07T07:55:06;11.70;;;7.90;;
17451;SDS011;8843;48.838;9.324;2023-12-07T07:57:33;12.20;;;7.23;;
17451;SDS011;8843;48.838;9.324;2023-12-07T08:00:00;9.90;;;7.37;;
17451;SDS011;8843;48.838;9.324;2023-12-07T08:02:30;9.80;;;7.07;;
17451;SDS011;8843;48.838;9.324;2023-12-07T08:04:56;10.17;;;7.43;;
17451;SDS011;8843;48.838;9.324;2023-12-07T08:07:23;10.87;;;7.63;;
17451;SDS011;8843;48.838;9.324;2023-12-07T08:09:52;12.73;;;7.03;;
17451;SDS011;8843;48.838;9.324;2023-12-07T08:12:19;10.70;;;7.23;;
17451;SDS011;8843;48.838;9.324;2023-12-07T08:14:48;9.47;;;7.63;;
17451;SDS011;8843;48.838;9.324;2023-12-07T08:17:14;11.20;;;7.97;;
17451;SDS011;8843;48.838;9.324;2023-12-07T08:19:41;11.27;;;7.80;;
17451;SDS011;8843;48.838;9.324;2023-12-07T08:22:08;11.40;;;7.87;;
17451;SDS011;8843;48.838;9.324;2023-12-07T08:24:35;13.27;;;8.03;;
17451;SDS011;8843;48.838;9.324;2023-12-07T08:27:05;10.20;;;8.10;;
17451;SDS011;8843;48.838;9.324;2023-12-07T08:29:32;12.50;;;9.23;;
17451;SDS011;8843;48.838;9.324;2023-12-07T08:31:59;16.43;;;9.60;;
17451;SDS011;8843;48.838;9.324;2023-12-07T08:34:26;12.63;;;8.83;;
17451;SDS011;8843;48.838;9.324;2023-12-07T08:36:53;14.00;;;10.07;;
17451;SDS011;8843;48.838;9.324;2023-12-07T08:39:20;13.07;;;10.00;;
17451;SDS011;8843;48.838;9.324;2023-12-07T08:41:47;11.97;;;9.30;;
17451;SDS011;8843;48.838;9.324;2023-12-07T08:44:15;13.00;;;9.17;;
17451;SDS011;8843;48.838;9.324;2023-12-07T08:46:42;13.03;;;8.57;;
17451;SDS011;8843;48.838;9.324;2023-12-07T08:49:10;12.13;;;8.30;;
17451;SDS011;8843;48.838;9.324;2023-12-07T08:51:37;11.03;;;8.47;;
17451;SDS011;8843;48.838;9.324;2023-12-07T08:54:03;12.80;;;9.57;;
17451;SDS011;8843;48.838;9.324;2023-12-07T08:56:31;11.10;;;8.50;;
17451;SDS011;8843;48.838;9.324;2023-12-07T08:58:58;12.83;;;8.90;;
17451;SDS011;8843;48.838;9.324;2023-12-07T09:01:26;12.47;;;9.47;;
17451;SDS011;8843;48.838;9.324;2023-12-07T09:03:53;10.27;;;8.63;;
17451;SDS011;8843;48.838;9.324;2023-12-07T09:06:20;10.97;;;7.97;;
17451;SDS011;8843;48.838;9.324;2023-12-07T09:08:47;9.80;;;7.83;;
17451;SDS011;8843;48.838;9.324;2023-12-07T09:11:13;9.17;;;8.10;;
17451;SDS011;8843;48.838;9.324;2023-12-07T09:13:40;9.60;;;7.40;;
17451;SDS011;8843;48.838;9.324;2023-12-07T09:16:07;8.70;;;7.27;;
17451;SDS011;8843;48.838;9.324;2023-12-07T09:18:36;10.73;;;8.10;;
17451;SDS011;8843;48.838;9.324;2023-12-07T09:21:03;9.27;;;7.63;;
17451;SDS011;8843;48.838;9.324;2023-12-07T09:23:30;10.00;;;7.27;;
17451;SDS011;8843;48.838;9.324;2023-12-07T09:25:57;10.10;;;7.50;;
17451;SDS011;8843;48.838;9.324;2023-12-07T09:28:24;11.47;;;8.30;;
17451;SDS011;8843;48.838;9.324;2023-12-07T09:30:51;8.83;;;7.30;;
17451;SDS011;8843;48.838;9.324;2023-12-07T09:33:18;9.97;;;7.67;;
17451;SDS011;8843;48.838;9.324;2023-12-07T09:35:46;9.80;;;7.73;;
17451;SDS011;8843;48.838;9.324;2023-12-07T09:38:14;9.33;;;7.93;;
17451;SDS011;8843;48.838;9.324;2023-12-07T09:40:41;9.97;;;7.90;;
17451;SDS011;8843;48.838;9.324;2023-12-07T09:43:08;10.47;;;8.70;;
17451;SDS011;8843;48.838;9.324;2023-12-07T09:45:35;10.37;;;8.23;;
17451;SDS011;8843;48.838;9.324;2023-12-07T09:48:02;10.13;;;7.73;;
17451;SDS011;8843;48.838;9.324;2023-12-07T09:50:30;10.40;;;7.63;;
17451;SDS011;8843;48.838;9.324;2023-12-07T09:52:59;11.30;;;7.93;;
17451;SDS011;8843;48.838;9.324;2023-12-07T09:55:26;10.33;;;7.93;;
17451;SDS011;8843;48.838;9.324;2023-12-07T09:57:52;9.97;;;8.00;;
17451;SDS011;8843;48.838;9.324;2023-12-07T10:00:22;11.37;;;7.93;;
17451;SDS011;8843;48.838;9.324;2023-12-07T10:02:49;11.53;;;8.23;;
17451;SDS011;8843;48.838;9.324;2023-12-07T10:05:16;10.83;;;7.43;;
17451;SDS011;8843;48.838;9.324;2023-12-07T10:07:44;12.53;;;8.27;;
17451;SDS011;8843;48.838;9.324;2023-12-07T10:10:14;10.53;;;7.83;;
17451;SDS011;8843;48.838;9.324;2023-12-07T10:12:45;9.60;;;7.47;;
17451;SDS011;8843;48.838;9.324;2023-12-07T10:15:13;10.87;;;7.60;;
17451;SDS011;8843;48.838;9.324;2023-12-07T10:17:45;10.10;;;8.30;;
17451;SDS011;8843;48.838;9.324;2023-12-07T10:20:14;12.03;;;7.73;;
17451;SDS011;8843;48.838;9.324;2023-12-07T10:22:41;10.23;;;8.10;;
17451;SDS011;8843;48.838;9.324;2023-12-07T10:25:09;11.37;;;8.10;;
17451;SDS011;8843;48.838;9.324;2023-12-07T10:27:38;10.90;;;8.47;;
17451;SDS011;8843;48.838;9.324;2023-12-07T10:30:08;11.57;;;8.27;;
17451;SDS011;8843;48.838;9.324;2023-12-07T10:32:37;10.60;;;7.50;;
17451;SDS011;8843;48.838;9.324;2023-12-07T10:35:06;14.17;;;8.67;;
17451;SDS011;8843;48.838;9.324;2023-12-07T10:37:34;9.30;;;8.20;;
17451;SDS011;8843;48.838;9.324;2023-12-07T10:40:02;10.00;;;8.27;;
17451;SDS011;8843;48.838;9.324;2023-12-07T10:42:32;9.33;;;7.50;;
17451;SDS011;8843;48.838;9.324;2023-12-07T10:45:04;12.43;;;9.33;;
17451;SDS011;8843;48.838;9.324;2023-12-07T10:47:35;11.93;;;9.17;;
17451;SDS011;8843;48.838;9.324;2023-12-07T10:50:04;14.13;;;8.13;;
17451;SDS011;8843;48.838;9.324;2023-12-07T10:52:36;12.23;;;8.63;;
17451;SDS011;8843;48.838;9.324;2023-12-07T10:55:06;14.37;;;8.47;;
17451;SDS011;8843;48.838;9.324;2023-12-07T10:57:36;10.93;;;8.73;;
17451;SDS011;8843;48.838;9.324;2023-12-07T11:00:07;14.80;;;9.97;;
17451;SDS011;8843;48.838;9.324;2023-12-07T11:02:35;12.40;;;8.30;;
17451;SDS011;8843;48.838;9.324;2023-12-07T11:05:04;13.77;;;8.93;;
17451;SDS011;8843;48.838;9.324;2023-12-07T11:07:33;13.00;;;9.43;;
17451;SDS011;8843;48.838;9.324;2023-12-07T11:10:11;12.80;;;9.77;;
17451;SDS011;8843;48.838;9.324;2023-12-07T11:12:43;15.57;;;10.53;;
17451;SDS011;8843;48.838;9.324;2023-12-07T11:15:16;11.27;;;8.73;;
17451;SDS011;8843;48.838;9.324;2023-12-07T11:17:47;13.73;;;8.77;;
17451;SDS011;8843;48.838;9.324;2023-12-07T11:20:18;13.90;;;10.17;;
17451;SDS011;8843;48.838;9.324;2023-12-07T11:22:46;15.07;;;8.87;;
17451;SDS011;8843;48.838;9.324;2023-12-07T11:25:14;12.30;;;9.43;;
17451;SDS011;8843;48.838;9.324;2023-12-07T11:27:43;11.57;;;8.67;;
17451;SDS011;8843;48.838;9.324;2023-12-07T11:30:12;13.67;;;9.77;;
17451;SDS011;8843;48.838;9.324;2023-12-07T11:32:42;13.57;;;9.87;;
17451;SDS011;8843;48.838;9.324;2023-12-07T11:35:12;12.93;;;9.33;;
17451;SDS011;8843;48.838;9.324;2023-12-07T11:40:31;13.00;;;9.97;;
17451;SDS011;8843;48.838;9.324;2023-12-07T11:43:00;12.13;;;9.07;;
17451;SDS011;8843;48.838;9.324;2023-12-07T11:45:36;10.63;;;8.37;;
17451;SDS011;8843;48.838;9.324;2023-12-07T11:48:09;11.80;;;8.50;;
17451;SDS011;8843;48.838;9.324;2023-12-07T11:50:46;12.93;;;8.67;;
17451;SDS011;8843;48.838;9.324;2023-12-07T11:53:21;10.50;;;7.30;;
17451;SDS011;8843;48.838;9.324;2023-12-07T11:55:49;9.47;;;7.50;;
17451;SDS011;8843;48.838;9.324;2023-12-07T11:58:16;15.40;;;7.33;;
17451;SDS011;8843;48.838;9.324;2023-12-07T12:00:43;12.07;;;7.63;;
17451;SDS011;8843;48.838;9.324;2023-12-07T12:03:13;11.47;;;7.43;;
17451;SDS011;8843;48.838;9.324;2023-12-07T12:05:40;12.03;;;8.33;;
17451;SDS011;8843;48.838;9.324;2023-12-07T12:08:08;9.80;;;7.27;;
17451;SDS011;8843;48.838;9.324;2023-12-07T12:10:35;9.10;;;6.57;;
17451;SDS011;8843;48.838;9.324;2023-12-07T12:13:02;8.70;;;6.73;;
17451;SDS011;8843;48.838;9.324;2023-12-07T12:15:29;9.33;;;6.60;;
17451;SDS011;8843;48.838;9.324;2023-12-07T12:17:56;11.97;;;6.40;;
17451;SDS011;8843;48.838;9.324;2023-12-07T12:20:25;7.23;;;5.80;;
17451;SDS011;8843;48.838;9.324;2023-12-07T12:22:52;8.67;;;5.43;;
17451;SDS011;8843;48.838;9.324;2023-12-07T12:25:19;6.43;;;5.13;;
17451;SDS011;8843;48.838;9.324;2023-12-07T12:27:47;13.27;;;6.97;;
17451;SDS011;8843;48.838;9.324;2023-12-07T12:30:15;8.70;;;5.97;;
17451;SDS011;8843;48.838;9.324;2023-12-07T12:32:43;6.87;;;4.70;;
17451;SDS011;8843;48.838;9.324;2023-12-07T12:35:11;7.40;;;6.07;;
17451;SDS011;8843;48.838;9.324;2023-12-07T12:37:41;7.73;;;5.57;;
17451;SDS011;8843;48.838;9.324;2023-12-07T12:40:08;5.97;;;5.20;;
17451;SDS011;8843;48.838;9.324;2023-12-07T12:42:37;6.70;;;5.20;;
17451;SDS011;8843;48.838;9.324;2023-12-07T12:45:04;8.33;;;5.43;;
17451;SDS011;8843;48.838;9.324;2023-12-07T12:47:33;8.70;;;4.97;;
17451;SDS011;8843;48.838;9.324;2023-12-07T12:50:00;7.20;;;4.77;;
17451;SDS011;8843;48.838;9.324;2023-12-07T12:52:29;6.33;;;4.27;;
17451;SDS011;8843;48.838;9.324;2023-12-07T12:54:58;5.93;;;4.47;;
17451;SDS011;8843;48.838;9.324;2023-12-07T12:57:25;6.50;;;4.00;;
17451;SDS011;8843;48.838;9.324;2023-12-07T12:59:51;6.13;;;4.37;;
17451;SDS011;8843;48.838;9.324;2023-12-07T13:02:18;4.80;;;3.80;;
17451;SDS011;8843;48.838;9.324;2023-12-07T13:04:45;3.93;;;3.53;;
17451;SDS011;8843;48.838;9.324;2023-12-07T13:07:12;7.63;;;4.13;;
17451;SDS011;8843;48.838;9.324;2023-12-07T13:09:39;4.60;;;4.07;;
17451;SDS011;8843;48.838;9.324;2023-12-07T13:12:10;8.10;;;4.90;;
17451;SDS011;8843;48.838;9.324;2023-12-07T13:14:37;7.33;;;5.20;;
17451;SDS011;8843;48.838;9.324;2023-12-07T13:17:05;6.10;;;4.00;;
17451;SDS011;8843;48.838;9.324;2023-12-07T13:19:32;5.93;;;4.17;;
17451;SDS011;8843;48.838;9.324;2023-12-07T13:21:59;5.07;;;4.10;;
17451;SDS011;8843;48.838;9.324;2023-12-07T13:24:26;5.17;;;3.97;;
17451;SDS011;8843;48.838;9.324;2023-12-07T13:26:53;5.97;;;4.63;;
17451;SDS011;8843;48.838;9.324;2023-12-07T13:29:22;6.60;;;4.10;;
17451;SDS011;8843;48.838;9.324;2023-12-07T13:31:49;5.10;;;3.87;;
17451;SDS011;8843;48.838;9.324;2023-12-07T13:34:16;5.13;;;3.87;;
17451;SDS011;8843;48.838;9.324;2023-12-07T13:36:43;5.33;;;3.77;;
17451;SDS011;8843;48.838;9.324;2023-12-07T13:39:10;4.40;;;3.90;;
17451;SDS011;8843;48.838;9.324;2023-12-07T13:41:38;4.63;;;3.60;;
17451;SDS011;8843;48.838;9.324;2023-12-07T13:44:05;5.83;;;4.10;;
17451;SDS011;8843;48.838;9.324;2023-12-07T13:46:33;5.20;;;4.07;;
17451;SDS011;8843;48.838;9.324;2023-12-07T13:49:02;3.00;;;2.70;;
17451;SDS011;8843;48.838;9.324;2023-12-07T13:51:29;5.87;;;3.40;;
17451;SDS011;8843;48.838;9.324;2023-12-07T13:53:56;3.20;;;2.80;;
17451;SDS011;8843;48.838;9.324;2023-12-07T13:56:23;4.20;;;2.80;;
17451;SDS011;8843;48.838;9.324;2023-12-07T13:58:50;3.13;;;2.53;;
17451;SDS011;8843;48.838;9.324;2023-12-07T14:01:17;3.23;;;2.70;;
17451;SDS011;8843;48.838;9.324;2023-12-07T14:03:46;9.67;;;2.77;;
17451;SDS011;8843;48.838;9.324;2023-12-07T14:06:20;4.40;;;2.83;;
17451;SDS011;8843;48.838;9.324;2023-12-07T14:08:48;3.87;;;2.67;;
17451;SDS011;8843;48.838;9.324;2023-12-07T14:11:15;2.33;;;2.10;;
17451;SDS011;8843;48.838;9.324;2023-12-07T14:13:42;3.37;;;2.17;;
17451;SDS011;8843;48.838;9.324;2023-12-07T14:16:11;3.47;;;2.63;;
17451;SDS011;8843;48.838;9.324;2023-12-07T14:18:38;2.63;;;2.20;;
17451;SDS011;8843;48.838;9.324;2023-12-07T14:21:07;2.50;;;2.20;;
17451;SDS011;8843;48.838;9.324;2023-12-07T14:23:34;2.60;;;2.00;;
17451;SDS011;8843;48.838;9.324;2023-12-07T14:26:01;3.30;;;2.43;;
17451;SDS011;8843;48.838;9.324;2023-12-07T14:28:27;2.80;;;1.93;;
17451;SDS011;8843;48.838;9.324;2023-12-07T14:30:55;3.83;;;2.10;;
17451;SDS011;8843;48.838;9.324;2023-12-07T14:33:22;3.17;;;1.87;;
17451;SDS011;8843;48.838;9.324;2023-12-07T14:35:49;2.50;;;2.30;;
17451;SDS011;8843;48.838;9.324;2023-12-07T14:38:17;1.87;;;1.67;;
17451;SDS011;8843;48.838;9.324;2023-12-07T14:40:44;4.07;;;2.40;;
17451;SDS011;8843;48.838;9.324;2023-12-07T14:43:11;3.87;;;2.27;;
17451;SDS011;8843;48.838;9.324;2023-12-07T14:45:38;3.47;;;2.20;;
17451;SDS011;8843;48.838;9.324;2023-12-07T14:48:05;4.60;;;1.97;;
17451;SDS011;8843;48.838;9.324;2023-12-07T14:50:32;3.53;;;2.33;;
17451;SDS011;8843;48.838;9.324;2023-12-07T14:52:59;2.20;;;1.93;;
17451;SDS011;8843;48.838;9.324;2023-12-07T14:55:27;2.50;;;2.30;;
17451;SDS011;8843;48.838;9.324;2023-12-07T14:57:54;3.50;;;2.10;;
17451;SDS011;8843;48.838;9.324;2023-12-07T15:00:21;7.33;;;2.53;;
17451;SDS011;8843;48.838;9.324;2023-12-07T15:02:51;3.07;;;2.60;;
17451;SDS011;8843;48.838;9.324;2023-12-07T15:05:18;2.80;;;2.27;;